Time;durP1;ratioP1;P1;durP2;ratioP2;P2;SDS_P1;SDS_P2;PMS_P1;PMS_P2;Temp;Humidity;BMP_temperature;BMP_pressure;BME280_temperature;BME280_humidity;BME280_pressure;Samples;Min_cycle;Max_cycle;Signal;HPM_P1;HPM_P2
2023/01/29 00:01:01;;;;;;;;;;;2.50;91.50;;;;;;5004344;28;20004;-74
2023/01/29 00:03:27;;;;;;;;;;;2.50;91.50;;;;;;5011449;28;19909;-75
2023/01/29 00:05:52;;;;;;;;;;;2.50;91.70;;;;;;5005348;28;19909;-75
2023/01/29 00:08:18;;;;;;;;;;;2.50;91.50;;;;;;5013240;28;19917;-75
2023/01/29 00:10:43;;;;;;;;;;;2.50;91.20;;;;;;5005327;28;19916;-76
2023/01/29 00:13:09;;;;;;;;;;;2.50;91.70;;;;;;5019841;28;19913;-75
2023/01/29 00:15:35;;;;;;;;;;;2.50;91.70;;;;;;5008401;28;19972;-75
2023/01/29 00:18:00;;;;;;;;;;;2.50;91.50;;;;;;5003827;28;20030;-75
2023/01/29 00:20:26;;;;;;;;;;;2.50;91.20;;;;;;5011482;28;20565;-76
2023/01/29 00:22:51;;;;;;;;;;;2.50;91.60;;;;;;5017950;28;19913;-75
2023/01/29 00:25:17;;;;;;;;;;;2.50;91.70;;;;;;5013554;28;19913;-75
2023/01/29 00:27:43;;;;;;;;;;;2.50;91.70;;;;;;5012344;28;19917;-75
2023/01/29 00:30:11;;;;;;;;;;;2.50;91.90;;;;;;5008856;28;19913;-74
2023/01/29 00:32:40;;;;;;;;;;;2.50;91.80;;;;;;5016491;28;19928;-75
2023/01/29 00:35:06;;;;;;;;;;;2.50;91.50;;;;;;5018035;28;19913;-75
2023/01/29 00:37:32;;;;;;;;;;;2.50;91.40;;;;;;5009273;28;20708;-76
2023/01/29 00:39:57;;;;;;;;;;;2.50;91.50;;;;;;5004721;28;19916;-76
2023/01/29 00:45:08;;;;;;;;;;;2.50;91.40;;;;;;5010813;28;20285;-76
2023/01/29 00:47:33;;;;;;;;;;;2.50;91.70;;;;;;5014885;28;19909;-76
2023/01/29 00:50:00;;;;;;;;;;;2.50;91.30;;;;;;5015763;28;20324;-76
2023/01/29 00:52:25;;;;;;;;;;;2.50;91.20;;;;;;5012742;28;19910;-76
2023/01/29 00:54:56;;;;;;;;;;;2.50;91.40;;;;;;5009884;28;19916;-76
2023/01/29 00:57:22;;;;;;;;;;;2.60;91.40;;;;;;5003035;28;19917;-76
2023/01/29 00:59:48;;;;;;;;;;;2.60;91.30;;;;;;5013383;28;20656;-76
2023/01/29 01:04:57;;;;;;;;;;;2.50;91.30;;;;;;5007043;28;19920;-76
2023/01/29 01:07:23;;;;;;;;;;;2.50;91.10;;;;;;5003002;28;19909;-76
2023/01/29 01:12:33;;;;;;;;;;;2.50;91.10;;;;;;5017607;28;19923;-76
2023/01/29 01:14:58;;;;;;;;;;;2.50;91.20;;;;;;5020824;28;19909;-76
2023/01/29 01:17:24;;;;;;;;;;;2.50;91.30;;;;;;5020913;28;19909;-77
2023/01/29 01:19:50;;;;;;;;;;;2.50;91.60;;;;;;5002384;28;19913;-76
2023/01/29 01:22:15;;;;;;;;;;;2.60;91.40;;;;;;5012419;28;19963;-76
2023/01/29 01:24:41;;;;;;;;;;;2.50;91.20;;;;;;5011263;28;19909;-76
2023/01/29 01:27:06;;;;;;;;;;;2.50;91.20;;;;;;5014737;28;19932;-76
2023/01/29 01:29:32;;;;;;;;;;;2.50;91.50;;;;;;5010645;28;20494;-76
2023/01/29 01:31:58;;;;;;;;;;;2.50;91.40;;;;;;5013527;28;19909;-76
2023/01/29 01:34:25;;;;;;;;;;;2.50;91.60;;;;;;5018837;28;19909;-76
2023/01/29 01:36:52;;;;;;;;;;;2.50;91.60;;;;;;5020398;28;19951;-76
2023/01/29 01:39:17;;;;;;;;;;;2.50;91.70;;;;;;5009052;28;19917;-76
2023/01/29 01:41:43;;;;;;;;;;;2.50;91.90;;;;;;5008083;28;20167;-76
2023/01/29 01:44:28;;;;;;;;;;;2.50;91.90;;;;;;5019405;28;19909;-75
2023/01/29 01:46:54;;;;;;;;;;;2.50;91.90;;;;;;5015449;28;19924;-76
2023/01/29 01:49:20;;;;;;;;;;;2.50;92.00;;;;;;5011382;28;19913;-76
2023/01/29 01:51:47;;;;;;;;;;;2.50;91.90;;;;;;5006321;28;19966;-76
2023/01/29 01:54:23;;;;;;;;;;;2.50;91.90;;;;;;5009327;28;20036;-76
2023/01/29 01:56:54;;;;;;;;;;;2.50;91.70;;;;;;5014497;28;20073;-76
2023/01/29 01:59:20;;;;;;;;;;;2.50;92.00;;;;;;5007906;28;19971;-76
2023/01/29 02:01:51;;;;;;;;;;;2.50;92.20;;;;;;5009372;28;19909;-76
2023/01/29 02:09:58;;;;;;;;;;;2.50;92.20;;;;;;5011091;28;19916;-75
2023/01/29 02:12:24;;;;;;;;;;;2.50;92.10;;;;;;5011877;28;19954;-75
2023/01/29 02:14:50;;;;;;;;;;;2.40;92.50;;;;;;5012780;28;20434;-75
2023/01/29 02:17:16;;;;;;;;;;;2.40;92.30;;;;;;5023910;28;20396;-74
2023/01/29 02:19:53;;;;;;;;;;;2.50;91.70;;;;;;5012024;28;20764;-76
2023/01/29 02:22:37;;;;;;;;;;;2.40;91.80;;;;;;5016844;28;20438;-74
2023/01/29 02:25:25;;;;;;;;;;;2.40;91.80;;;;;;5005245;28;19917;-75
2023/01/29 02:28:10;;;;;;;;;;;2.50;91.60;;;;;;5002253;28;19909;-75
2023/01/29 02:30:38;;;;;;;;;;;2.40;91.50;;;;;;5015239;28;19909;-75
2023/01/29 02:33:20;;;;;;;;;;;2.40;91.10;;;;;;5021785;28;19924;-75
2023/01/29 02:35:51;;;;;;;;;;;2.40;91.10;;;;;;5019093;28;19913;-74
2023/01/29 02:38:20;;;;;;;;;;;2.40;91.10;;;;;;5015659;28;19924;-74
2023/01/29 02:40:49;;;;;;;;;;;2.40;91.30;;;;;;5014044;28;19929;-74
2023/01/29 02:43:26;;;;;;;;;;;2.30;91.40;;;;;;5021438;28;19949;-74
2023/01/29 02:45:58;;;;;;;;;;;2.30;91.20;;;;;;5008880;28;20340;-75
2023/01/29 02:48:24;;;;;;;;;;;2.30;91.00;;;;;;5017472;28;19917;-73
2023/01/29 02:50:50;;;;;;;;;;;2.30;91.20;;;;;;5010130;28;20459;-75
2023/01/29 02:53:17;;;;;;;;;;;2.40;91.30;;;;;;5008960;28;19936;-74
2023/01/29 02:55:58;;;;;;;;;;;2.30;91.20;;;;;;5012189;28;19992;-75
2023/01/29 02:58:38;;;;;;;;;;;2.40;90.70;;;;;;5014158;28;19966;-74
2023/01/29 03:01:10;;;;;;;;;;;2.30;91.00;;;;;;5013993;28;19922;-75
2023/01/29 03:03:44;;;;;;;;;;;2.40;91.00;;;;;;5021167;28;19917;-74
2023/01/29 03:06:17;;;;;;;;;;;2.40;90.70;;;;;;5014694;28;20296;-74
2023/01/29 03:08:52;;;;;;;;;;;2.30;90.70;;;;;;5016134;28;19916;-75
2023/01/29 03:11:19;;;;;;;;;;;2.30;90.40;;;;;;5012669;28;19914;-74
2023/01/29 03:13:44;;;;;;;;;;;2.40;90.30;;;;;;5004918;28;19909;-74
2023/01/29 03:16:18;;;;;;;;;;;2.30;90.20;;;;;;5015150;28;19919;-75
2023/01/29 03:18:49;;;;;;;;;;;2.30;90.60;;;;;;5014015;28;20011;-75
2023/01/29 03:32:25;;;;;;;;;;;2.20;89.70;;;;;;5022356;28;19943;-74
2023/01/29 03:34:53;;;;;;;;;;;2.20;89.50;;;;;;5016794;28;19908;-74
2023/01/29 03:37:31;;;;;;;;;;;2.20;89.20;;;;;;5013715;28;19959;-74
2023/01/29 03:39:57;;;;;;;;;;;2.20;89.50;;;;;;5006285;28;19923;-74
2023/01/29 03:42:28;;;;;;;;;;;2.20;89.70;;;;;;5006440;28;19909;-74
2023/01/29 03:45:09;;;;;;;;;;;2.10;90.20;;;;;;5013743;28;19913;-74
2023/01/29 03:47:34;;;;;;;;;;;2.10;89.90;;;;;;5006092;28;19955;-74
2023/01/29 03:50:11;;;;;;;;;;;2.10;90.10;;;;;;5010576;28;19917;-74
2023/01/29 03:52:43;;;;;;;;;;;2.10;90.10;;;;;;4995651;28;19909;-74
2023/01/29 03:55:13;;;;;;;;;;;2.00;90.40;;;;;;5004207;28;19909;-74
2023/01/29 03:57:45;;;;;;;;;;;2.10;90.00;;;;;;5015351;28;19909;-74
2023/01/29 04:00:11;;;;;;;;;;;2.10;89.80;;;;;;5007077;28;19928;-75
2023/01/29 04:02:57;;;;;;;;;;;2.10;90.10;;;;;;5004605;28;19932;-75
2023/01/29 04:05:24;;;;;;;;;;;2.10;89.80;;;;;;4973585;28;19932;-75
2023/01/29 04:07:52;;;;;;;;;;;2.00;90.10;;;;;;5007089;28;19953;-74
2023/01/29 04:10:19;;;;;;;;;;;1.90;90.10;;;;;;5012858;28;19952;-75
2023/01/29 04:12:51;;;;;;;;;;;1.90;90.50;;;;;;5017323;28;20647;-74
2023/01/29 04:15:17;;;;;;;;;;;1.90;90.40;;;;;;5007539;28;19914;-74
2023/01/29 04:17:48;;;;;;;;;;;1.90;90.30;;;;;;5016849;28;19914;-75
2023/01/29 04:20:14;;;;;;;;;;;2.00;90.20;;;;;;5010006;28;20288;-75
2023/01/29 04:22:43;;;;;;;;;;;2.00;90.00;;;;;;5015629;28;19917;-75
2023/01/29 04:25:14;;;;;;;;;;;2.00;90.20;;;;;;5009854;28;19921;-74
2023/01/29 04:27:46;;;;;;;;;;;2.00;90.10;;;;;;4996924;28;19917;-74
2023/01/29 04:30:19;;;;;;;;;;;2.00;90.00;;;;;;5017316;28;20316;-74
2023/01/29 04:32:46;;;;;;;;;;;2.00;90.10;;;;;;5021468;28;19920;-74
2023/01/29 04:35:27;;;;;;;;;;;1.90;90.40;;;;;;5008551;28;19912;-75
2023/01/29 04:37:55;;;;;;;;;;;1.90;90.30;;;;;;5008507;28;19917;-75
2023/01/29 04:40:39;;;;;;;;;;;1.90;90.40;;;;;;5008027;28;19920;-74
2023/01/29 04:43:20;;;;;;;;;;;1.90;90.00;;;;;;5017468;28;19921;-75
2023/01/29 04:46:04;;;;;;;;;;;1.90;89.50;;;;;;5019607;28;20646;-75
2023/01/29 04:48:41;;;;;;;;;;;1.90;89.80;;;;;;5008452;28;19932;-76
2023/01/29 04:51:10;;;;;;;;;;;1.90;90.00;;;;;;5008295;28;19956;-74
2023/01/29 04:53:48;;;;;;;;;;;1.70;90.60;;;;;;5014081;28;19992;-75
2023/01/29 04:56:18;;;;;;;;;;;1.70;90.50;;;;;;5004348;28;19909;-74
2023/01/29 04:58:46;;;;;;;;;;;1.70;90.60;;;;;;5014396;28;19924;-75
2023/01/29 05:01:13;;;;;;;;;;;1.80;90.10;;;;;;5011092;28;20766;-74
2023/01/29 05:03:39;;;;;;;;;;;1.80;90.20;;;;;;5009230;28;19913;-74
2023/01/29 05:06:06;;;;;;;;;;;1.80;90.40;;;;;;5009336;28;20439;-75
2023/01/29 05:08:33;;;;;;;;;;;1.70;90.60;;;;;;5011093;28;19909;-75
2023/01/29 05:10:58;;;;;;;;;;;1.60;90.50;;;;;;5011768;28;19913;-76
2023/01/29 05:13:24;;;;;;;;;;;1.60;90.60;;;;;;5008238;28;19909;-76
2023/01/29 05:16:01;;;;;;;;;;;1.50;90.50;;;;;;5015547;28;20004;-76
2023/01/29 05:18:27;;;;;;;;;;;1.40;90.70;;;;;;5011212;28;19917;-75
2023/01/29 05:20:55;;;;;;;;;;;1.30;90.80;;;;;;5015095;28;19991;-75
2023/01/29 05:23:21;;;;;;;;;;;1.30;91.00;;;;;;5011019;28;19925;-75
2023/01/29 05:25:47;;;;;;;;;;;1.20;91.10;;;;;;5009141;28;20595;-76
2023/01/29 05:28:16;;;;;;;;;;;1.20;91.10;;;;;;5009067;28;19967;-76
2023/01/29 05:30:43;;;;;;;;;;;1.20;91.40;;;;;;5016778;28;20378;-75
2023/01/29 05:33:11;;;;;;;;;;;1.10;91.60;;;;;;5019668;28;19948;-75
2023/01/29 05:35:37;;;;;;;;;;;1.10;91.50;;;;;;5012272;28;19910;-75
2023/01/29 05:38:02;;;;;;;;;;;1.00;91.70;;;;;;5002890;28;20610;-75
2023/01/29 05:40:28;;;;;;;;;;;1.00;91.70;;;;;;4984784;28;19909;-75
2023/01/29 05:42:53;;;;;;;;;;;0.90;91.80;;;;;;5016309;28;19909;-76
2023/01/29 05:45:19;;;;;;;;;;;0.90;92.00;;;;;;5011021;28;20347;-76
2023/01/29 05:47:45;;;;;;;;;;;0.90;92.10;;;;;;5004590;28;19913;-75
2023/01/29 05:50:11;;;;;;;;;;;0.80;92.20;;;;;;5012819;28;20458;-75
2023/01/29 05:52:37;;;;;;;;;;;0.70;92.40;;;;;;5012889;28;20007;-75
2023/01/29 05:55:03;;;;;;;;;;;0.60;92.50;;;;;;5020089;28;19996;-75
2023/01/29 05:57:28;;;;;;;;;;;0.70;92.60;;;;;;5018976;28;19920;-75
2023/01/29 05:59:54;;;;;;;;;;;0.90;92.40;;;;;;5015088;28;19957;-76
2023/01/29 06:02:20;;;;;;;;;;;1.00;92.40;;;;;;5006016;28;19960;-75
2023/01/29 06:04:45;;;;;;;;;;;0.90;92.40;;;;;;5002944;28;19963;-75
2023/01/29 06:07:11;;;;;;;;;;;0.90;92.40;;;;;;5002329;28;19916;-75
2023/01/29 06:09:36;;;;;;;;;;;0.90;92.40;;;;;;5008503;28;20678;-75
2023/01/29 06:12:05;;;;;;;;;;;1.00;92.40;;;;;;5016188;28;19913;-75
2023/01/29 06:14:30;;;;;;;;;;;1.00;92.30;;;;;;5009381;28;20365;-75
2023/01/29 06:16:56;;;;;;;;;;;1.00;92.40;;;;;;5018352;28;19913;-75
2023/01/29 06:19:21;;;;;;;;;;;1.10;92.40;;;;;;5012122;28;19928;-75
2023/01/29 06:21:47;;;;;;;;;;;1.00;92.40;;;;;;5014119;28;20575;-74
2023/01/29 06:24:12;;;;;;;;;;;0.90;92.50;;;;;;5003164;28;19913;-75
2023/01/29 06:26:38;;;;;;;;;;;0.90;92.60;;;;;;5015858;28;20442;-76
2023/01/29 06:29:03;;;;;;;;;;;0.80;92.90;;;;;;5004328;28;19909;-75
2023/01/29 06:31:30;;;;;;;;;;;0.70;92.80;;;;;;5008020;28;19917;-75
2023/01/29 06:33:55;;;;;;;;;;;0.70;92.90;;;;;;5006506;28;19910;-75
2023/01/29 06:36:21;;;;;;;;;;;0.80;92.90;;;;;;5013773;28;19909;-76
2023/01/29 06:38:47;;;;;;;;;;;0.80;92.80;;;;;;5015452;28;19920;-75
2023/01/29 06:41:14;;;;;;;;;;;0.80;92.80;;;;;;5018289;28;20432;-76
2023/01/29 06:43:42;;;;;;;;;;;0.90;92.80;;;;;;5012254;28;19916;-75
2023/01/29 06:46:08;;;;;;;;;;;0.90;92.70;;;;;;4998402;28;19908;-75
2023/01/29 06:48:34;;;;;;;;;;;1.00;92.70;;;;;;5020568;28;20418;-74
2023/01/29 06:51:03;;;;;;;;;;;1.20;92.60;;;;;;5015321;28;20266;-74
2023/01/29 06:53:29;;;;;;;;;;;1.20;92.50;;;;;;5013599;28;19927;-75
2023/01/29 06:55:54;;;;;;;;;;;1.30;92.30;;;;;;5011649;28;19909;-75
2023/01/29 06:58:20;;;;;;;;;;;1.40;92.00;;;;;;5012647;28;19925;-75
2023/01/29 07:00:45;;;;;;;;;;;1.50;91.80;;;;;;5014044;28;19917;-74
2023/01/29 07:03:11;;;;;;;;;;;1.60;91.70;;;;;;5011970;28;19909;-75
2023/01/29 07:05:36;;;;;;;;;;;1.60;91.60;;;;;;5004906;28;19909;-76
2023/01/29 07:08:02;;;;;;;;;;;1.70;91.50;;;;;;5006285;28;19909;-75
2023/01/29 07:10:28;;;;;;;;;;;1.70;91.50;;;;;;5012662;28;20273;-76
2023/01/29 07:12:53;;;;;;;;;;;1.70;91.40;;;;;;5022643;28;20618;-75
2023/01/29 07:15:20;;;;;;;;;;;1.70;91.50;;;;;;5019224;28;19914;-75
2023/01/29 07:17:58;;;;;;;;;;;1.70;91.50;;;;;;5018331;28;19913;-75
2023/01/29 07:20:25;;;;;;;;;;;1.70;91.50;;;;;;5018415;28;19921;-75
2023/01/29 07:22:50;;;;;;;;;;;1.70;91.30;;;;;;5021636;28;19967;-75
2023/01/29 07:25:16;;;;;;;;;;;1.70;91.30;;;;;;5022937;28;19917;-75
2023/01/29 07:27:41;;;;;;;;;;;1.70;91.40;;;;;;5023673;28;19916;-76
2023/01/29 07:30:07;;;;;;;;;;;1.70;91.30;;;;;;5001937;28;20799;-76
2023/01/29 07:32:33;;;;;;;;;;;1.70;91.30;;;;;;5023184;28;19912;-76
2023/01/29 07:34:59;;;;;;;;;;;1.70;91.30;;;;;;5019044;28;19924;-76
2023/01/29 07:37:24;;;;;;;;;;;1.70;91.50;;;;;;5017206;28;19912;-76
2023/01/29 07:39:50;;;;;;;;;;;1.70;91.50;;;;;;5020921;28;19925;-76
2023/01/29 07:42:15;;;;;;;;;;;1.80;91.50;;;;;;5009886;28;20016;-76
2023/01/29 07:44:41;;;;;;;;;;;1.80;91.30;;;;;;5019894;28;19913;-76
2023/01/29 07:47:06;;;;;;;;;;;1.90;91.20;;;;;;5019477;28;19912;-76
2023/01/29 07:49:32;;;;;;;;;;;1.90;91.00;;;;;;5020254;28;19960;-76
2023/01/29 07:51:58;;;;;;;;;;;2.00;91.10;;;;;;5016753;28;20429;-75
2023/01/29 07:54:23;;;;;;;;;;;2.00;90.90;;;;;;5006440;28;19920;-77
2023/01/29 07:56:49;;;;;;;;;;;2.10;91.00;;;;;;5020150;28;19912;-75
2023/01/29 07:59:15;;;;;;;;;;;2.10;91.00;;;;;;5022133;28;19928;-75
2023/01/29 08:01:40;;;;;;;;;;;2.10;91.00;;;;;;5022026;28;19912;-76
2023/01/29 08:04:06;;;;;;;;;;;2.20;90.80;;;;;;5015693;28;19913;-75
2023/01/29 08:06:31;;;;;;;;;;;2.20;90.80;;;;;;5000382;28;19992;-75
2023/01/29 08:08:58;;;;;;;;;;;2.20;91.10;;;;;;5011372;28;19913;-76
2023/01/29 08:11:24;;;;;;;;;;;2.30;90.80;;;;;;5010067;28;19968;-76
2023/01/29 08:13:49;;;;;;;;;;;2.30;90.40;;;;;;5008955;28;19929;-76
2023/01/29 08:16:15;;;;;;;;;;;2.40;90.50;;;;;;5014249;28;19913;-76
2023/01/29 08:18:46;;;;;;;;;;;2.40;91.30;;;;;;5015888;28;19960;-76
2023/01/29 08:21:12;;;;;;;;;;;2.50;91.20;;;;;;4999671;28;19967;-76
2023/01/29 08:23:38;;;;;;;;;;;2.50;91.30;;;;;;5016470;28;19917;-75
2023/01/29 08:26:04;;;;;;;;;;;2.50;90.80;;;;;;5015130;28;19916;-76
2023/01/29 08:28:29;;;;;;;;;;;2.60;90.80;;;;;;5000982;28;19913;-75
2023/01/29 08:30:55;;;;;;;;;;;2.70;90.70;;;;;;5013137;28;19916;-75
2023/01/29 08:33:20;;;;;;;;;;;2.80;90.90;;;;;;5021689;28;19989;-75
2023/01/29 08:35:50;;;;;;;;;;;2.80;90.70;;;;;;5019589;28;19909;-75
2023/01/29 08:38:16;;;;;;;;;;;2.90;91.20;;;;;;5015674;28;19923;-75
2023/01/29 08:40:41;;;;;;;;;;;2.90;90.90;;;;;;5018447;28;19913;-76
2023/01/29 08:43:07;;;;;;;;;;;3.00;91.10;;;;;;5012446;28;19913;-77
2023/01/29 08:45:34;;;;;;;;;;;2.90;91.40;;;;;;5019414;28;20760;-76
2023/01/29 08:47:59;;;;;;;;;;;3.10;91.20;;;;;;5019298;28;19916;-76
2023/01/29 08:50:25;;;;;;;;;;;3.00;91.30;;;;;;5019622;28;19960;-76
2023/01/29 08:52:51;;;;;;;;;;;3.20;91.20;;;;;;5019747;28;20386;-76
2023/01/29 08:55:16;;;;;;;;;;;3.20;91.30;;;;;;5012480;28;19913;-77
2023/01/29 08:57:42;;;;;;;;;;;3.40;90.90;;;;;;5012211;28;19952;-78
2023/01/29 09:00:09;;;;;;;;;;;3.50;90.80;;;;;;5016546;28;20431;-79
2023/01/29 09:02:34;;;;;;;;;;;3.80;90.40;;;;;;5017610;28;19940;-78
2023/01/29 09:05:00;;;;;;;;;;;3.70;90.30;;;;;;5021659;28;20000;-78
2023/01/29 09:07:25;;;;;;;;;;;3.70;90.10;;;;;;5004060;28;19913;-78
2023/01/29 09:09:51;;;;;;;;;;;4.00;90.40;;;;;;5010517;28;19952;-77
2023/01/29 09:12:17;;;;;;;;;;;4.00;90.40;;;;;;5016992;28;19909;-78
2023/01/29 09:14:42;;;;;;;;;;;4.20;89.80;;;;;;5003002;28;19968;-78
2023/01/29 09:17:08;;;;;;;;;;;4.20;89.10;;;;;;5016927;28;20039;-78
2023/01/29 09:19:33;;;;;;;;;;;4.20;89.10;;;;;;5023043;28;19917;-78
2023/01/29 09:21:59;;;;;;;;;;;4.40;86.70;;;;;;5017219;28;19917;-77
2023/01/29 09:24:24;;;;;;;;;;;4.40;87.10;;;;;;5014112;28;19913;-78
2023/01/29 09:26:50;;;;;;;;;;;4.60;88.40;;;;;;5009598;28;19913;-78
2023/01/29 09:29:16;;;;;;;;;;;4.90;87.00;;;;;;4997764;28;19932;-78
2023/01/29 09:31:41;;;;;;;;;;;4.90;85.30;;;;;;5009775;28;19909;-78
2023/01/29 09:34:07;;;;;;;;;;;5.00;85.10;;;;;;5017992;28;20290;-78
2023/01/29 09:36:32;;;;;;;;;;;5.20;83.90;;;;;;5002981;28;20343;-77
2023/01/29 09:38:58;;;;;;;;;;;5.40;83.90;;;;;;5014456;28;19917;-78
2023/01/29 09:41:42;;;;;;;;;;;5.80;82.90;;;;;;5013721;28;19909;-78
2023/01/29 09:44:19;;;;;;;;;;;5.60;81.90;;;;;;5004362;28;19909;-78
2023/01/29 09:46:47;;;;;;;;;;;5.90;82.50;;;;;;5002935;28;20389;-77
2023/01/29 09:49:27;;;;;;;;;;;5.70;80.30;;;;;;5011724;28;19987;-78
2023/01/29 09:51:57;;;;;;;;;;;5.60;82.10;;;;;;5008575;28;19913;-78
2023/01/29 09:54:22;;;;;;;;;;;5.30;80.90;;;;;;5007756;28;19913;-78
2023/01/29 09:56:49;;;;;;;;;;;5.30;81.60;;;;;;5012569;28;19909;-78
2023/01/29 09:59:16;;;;;;;;;;;5.40;81.60;;;;;;5008036;28;19924;-78
2023/01/29 10:01:48;;;;;;;;;;;5.30;82.60;;;;;;5012541;28;19910;-78
2023/01/29 10:04:13;;;;;;;;;;;5.60;82.50;;;;;;5014102;28;19909;-78
2023/01/29 10:06:42;;;;;;;;;;;5.60;82.70;;;;;;5012875;28;20156;-78
2023/01/29 10:09:08;;;;;;;;;;;6.00;81.20;;;;;;5012779;28;19908;-78
2023/01/29 10:11:33;;;;;;;;;;;6.20;80.00;;;;;;5018832;28;19909;-78
2023/01/29 10:14:10;;;;;;;;;;;6.00;78.80;;;;;;5014359;28;19968;-77
2023/01/29 10:17:08;;;;;;;;;;;6.20;80.10;;;;;;5019845;28;19909;-78
2023/01/29 10:19:33;;;;;;;;;;;6.40;80.80;;;;;;4980145;28;19925;-78
2023/01/29 10:22:02;;;;;;;;;;;6.30;81.10;;;;;;5018363;28;19917;-77
2023/01/29 10:24:40;;;;;;;;;;;6.80;82.60;;;;;;5010620;28;19914;-78
2023/01/29 10:27:16;;;;;;;;;;;7.00;81.20;;;;;;5013683;28;20577;-77
2023/01/29 10:29:42;;;;;;;;;;;6.00;78.30;;;;;;5018708;28;20624;-78
2023/01/29 10:32:12;;;;;;;;;;;6.20;82.10;;;;;;5019619;28;19909;-78
2023/01/29 10:34:41;;;;;;;;;;;6.50;81.00;;;;;;5011751;28;19982;-78
2023/01/29 10:37:18;;;;;;;;;;;6.50;83.20;;;;;;5014092;28;19909;-78
2023/01/29 10:39:44;;;;;;;;;;;7.20;83.60;;;;;;5007369;28;19913;-78
2023/01/29 10:42:09;;;;;;;;;;;6.60;80.70;;;;;;5009154;28;19914;-77
2023/01/29 10:44:53;;;;;;;;;;;6.20;81.50;;;;;;5012331;28;19960;-78
2023/01/29 10:47:19;;;;;;;;;;;6.20;78.70;;;;;;5016718;28;19915;-78
2023/01/29 10:50:03;;;;;;;;;;;6.80;81.00;;;;;;5008055;28;19909;-78
2023/01/29 10:52:51;;;;;;;;;;;6.90;79.30;;;;;;5011378;28;19909;-77
2023/01/29 10:55:29;;;;;;;;;;;6.80;79.20;;;;;;5006087;28;20424;-77
2023/01/29 10:58:18;;;;;;;;;;;6.50;78.50;;;;;;5005529;28;19909;-78
2023/01/29 11:00:44;;;;;;;;;;;7.40;78.70;;;;;;5006520;28;19925;-78
2023/01/29 11:03:21;;;;;;;;;;;7.80;80.90;;;;;;5009546;28;19916;-77
2023/01/29 11:05:53;;;;;;;;;;;7.70;81.80;;;;;;5012585;28;19917;-77
2023/01/29 11:08:22;;;;;;;;;;;7.80;82.90;;;;;;5010732;28;19909;-78
2023/01/29 11:10:57;;;;;;;;;;;7.40;80.40;;;;;;5010150;28;19909;-78
2023/01/29 11:13:25;;;;;;;;;;;7.00;79.70;;;;;;5015699;28;19917;-79
2023/01/29 11:15:51;;;;;;;;;;;6.90;81.60;;;;;;5004519;28;19971;-77
2023/01/29 11:18:17;;;;;;;;;;;6.70;79.20;;;;;;5008597;28;19925;-78
2023/01/29 11:20:43;;;;;;;;;;;6.70;79.80;;;;;;5021071;28;20536;-77
2023/01/29 11:23:24;;;;;;;;;;;6.70;79.90;;;;;;5017108;28;20279;-78
2023/01/29 11:25:54;;;;;;;;;;;6.60;81.70;;;;;;5012490;28;19908;-78
2023/01/29 11:28:43;;;;;;;;;;;6.80;79.40;;;;;;5005369;28;19917;-78
2023/01/29 11:31:34;;;;;;;;;;;6.70;78.40;;;;;;5010271;28;19909;-78
2023/01/29 11:34:02;;;;;;;;;;;6.80;78.40;;;;;;5012283;28;19964;-78
2023/01/29 11:36:35;;;;;;;;;;;6.70;78.40;;;;;;5010041;28;20508;-78
2023/01/29 11:39:17;;;;;;;;;;;6.50;79.90;;;;;;5022498;28;19917;-79
2023/01/29 11:41:51;;;;;;;;;;;5.90;82.20;;;;;;5007381;28;19910;-78
2023/01/29 11:44:25;;;;;;;;;;;5.40;83.20;;;;;;5016155;28;20711;-78
2023/01/29 11:46:50;;;;;;;;;;;5.70;84.00;;;;;;4994446;28;19913;-78
2023/01/29 11:49:21;;;;;;;;;;;5.80;79.90;;;;;;5011724;28;20384;-78
2023/01/29 11:51:52;;;;;;;;;;;6.20;80.60;;;;;;5017670;28;20348;-78
2023/01/29 11:54:18;;;;;;;;;;;6.40;82.20;;;;;;5012893;28;19909;-78
2023/01/29 11:56:45;;;;;;;;;;;6.30;81.50;;;;;;5005220;28;19909;-78
2023/01/29 11:59:24;;;;;;;;;;;6.80;82.30;;;;;;5004331;28;20000;-78
2023/01/29 12:01:50;;;;;;;;;;;6.70;81.00;;;;;;5014636;28;19909;-78
2023/01/29 12:04:23;;;;;;;;;;;7.00;81.70;;;;;;5012478;28;19916;-78
2023/01/29 12:06:51;;;;;;;;;;;7.10;81.20;;;;;;5008318;28;20091;-78
2023/01/29 12:09:19;;;;;;;;;;;7.20;81.50;;;;;;5012939;28;19909;-78
2023/01/29 12:11:44;;;;;;;;;;;7.00;83.50;;;;;;5009278;28;19909;-78
2023/01/29 12:14:25;;;;;;;;;;;6.90;81.40;;;;;;5005836;28;19941;-78
2023/01/29 12:16:51;;;;;;;;;;;6.90;83.20;;;;;;5013256;28;19913;-78
2023/01/29 12:19:19;;;;;;;;;;;6.50;79.70;;;;;;5014662;28;19925;-77
2023/01/29 12:21:48;;;;;;;;;;;6.40;79.60;;;;;;5016650;28;20035;-78
2023/01/29 12:24:13;;;;;;;;;;;6.70;79.60;;;;;;5004207;28;19921;-78
2023/01/29 12:26:45;;;;;;;;;;;6.60;80.00;;;;;;5015402;28;19913;-78
2023/01/29 12:29:23;;;;;;;;;;;6.60;81.50;;;;;;5016378;28;20003;-78
2023/01/29 12:31:54;;;;;;;;;;;6.70;82.50;;;;;;5021401;28;20571;-78
2023/01/29 12:34:33;;;;;;;;;;;6.70;82.00;;;;;;5008682;28;19914;-78
2023/01/29 12:37:08;;;;;;;;;;;6.40;78.50;;;;;;5010541;28;19916;-78
2023/01/29 12:39:34;;;;;;;;;;;6.10;80.40;;;;;;5009655;28;19979;-78
2023/01/29 12:42:07;;;;;;;;;;;6.20;82.00;;;;;;5013283;28;19924;-78
2023/01/29 12:44:41;;;;;;;;;;;6.50;83.10;;;;;;5014846;28;19954;-78
2023/01/29 12:47:11;;;;;;;;;;;6.80;83.10;;;;;;5012204;28;19915;-77
2023/01/29 12:49:38;;;;;;;;;;;6.70;80.10;;;;;;5007446;28;20003;-79
2023/01/29 12:52:08;;;;;;;;;;;6.80;81.50;;;;;;5013144;28;19955;-78
2023/01/29 12:54:41;;;;;;;;;;;6.30;77.80;;;;;;5013664;28;19916;-78
2023/01/29 12:57:09;;;;;;;;;;;6.20;82.50;;;;;;5007962;28;19944;-78
2023/01/29 12:59:39;;;;;;;;;;;6.30;80.30;;;;;;5007783;28;19917;-78
2023/01/29 13:02:18;;;;;;;;;;;6.40;80.70;;;;;;5014404;28;19909;-78
2023/01/29 13:04:47;;;;;;;;;;;6.20;79.30;;;;;;5005530;28;19916;-78
2023/01/29 13:07:15;;;;;;;;;;;5.60;79.00;;;;;;5011067;28;19957;-78
2023/01/29 13:09:43;;;;;;;;;;;5.60;78.20;;;;;;5011550;28;19924;-78
2023/01/29 13:12:19;;;;;;;;;;;5.50;80.10;;;;;;5009250;28;19917;-78
2023/01/29 13:14:47;;;;;;;;;;;5.60;80.40;;;;;;5008948;28;19915;-77
2023/01/29 13:17:13;;;;;;;;;;;5.70;80.90;;;;;;5011533;28;19932;-78
2023/01/29 13:19:41;;;;;;;;;;;5.60;81.10;;;;;;5008967;28;20274;-78
2023/01/29 13:22:14;;;;;;;;;;;5.70;83.80;;;;;;5015564;28;20406;-78
2023/01/29 13:24:40;;;;;;;;;;;5.70;81.90;;;;;;4993492;28;19960;-78
2023/01/29 13:27:06;;;;;;;;;;;5.70;83.20;;;;;;5010094;28;20377;-78
2023/01/29 13:29:32;;;;;;;;;;;5.60;83.10;;;;;;5011113;28;19983;-78
2023/01/29 13:31:59;;;;;;;;;;;5.70;82.60;;;;;;5010560;28;20043;-78
2023/01/29 13:34:36;;;;;;;;;;;5.70;83.80;;;;;;5018526;28;20451;-78
2023/01/29 13:37:07;;;;;;;;;;;5.50;80.70;;;;;;5009547;28;20369;-78
2023/01/29 13:39:36;;;;;;;;;;;5.60;83.80;;;;;;4999017;28;19913;-79
2023/01/29 13:42:13;;;;;;;;;;;5.60;81.10;;;;;;5020362;28;20699;-77
2023/01/29 13:44:39;;;;;;;;;;;5.70;80.20;;;;;;5015196;28;19968;-78
2023/01/29 13:47:07;;;;;;;;;;;5.90;80.50;;;;;;5006871;28;19909;-78
2023/01/29 13:49:38;;;;;;;;;;;6.10;81.30;;;;;;5018985;28;19913;-78
2023/01/29 13:52:13;;;;;;;;;;;6.20;84.40;;;;;;5007957;28;20007;-78
2023/01/29 13:54:39;;;;;;;;;;;6.10;83.70;;;;;;5009328;28;19909;-78
2023/01/29 13:57:05;;;;;;;;;;;6.00;83.90;;;;;;5019313;28;20008;-77
2023/01/29 13:59:51;;;;;;;;;;;5.90;82.30;;;;;;5006482;28;19929;-78
2023/01/29 14:02:23;;;;;;;;;;;5.90;83.50;;;;;;5007862;28;19987;-78
2023/01/29 14:04:49;;;;;;;;;;;5.70;83.90;;;;;;5014915;28;19909;-78
2023/01/29 14:07:44;;;;;;;;;;;5.50;83.90;;;;;;5014865;28;19917;-79
2023/01/29 14:10:16;;;;;;;;;;;5.30;83.40;;;;;;4984660;28;19972;-78
2023/01/29 14:12:43;;;;;;;;;;;5.20;84.40;;;;;;5017915;28;19909;-78
2023/01/29 14:15:17;;;;;;;;;;;5.30;82.00;;;;;;5012416;28;19910;-78
2023/01/29 14:18:01;;;;;;;;;;;5.30;82.30;;;;;;5014850;28;19913;-78
2023/01/29 14:20:31;;;;;;;;;;;5.40;84.10;;;;;;5019761;28;20027;-78
2023/01/29 14:22:58;;;;;;;;;;;5.40;84.30;;;;;;5014565;28;19945;-79
2023/01/29 14:25:31;;;;;;;;;;;5.40;83.30;;;;;;5011883;28;19919;-79
2023/01/29 14:27:58;;;;;;;;;;;5.40;82.60;;;;;;5017870;28;19909;-78
2023/01/29 14:30:25;;;;;;;;;;;5.40;81.40;;;;;;5021108;28;19931;-78
2023/01/29 14:32:50;;;;;;;;;;;5.50;81.90;;;;;;5016806;28;20726;-78
2023/01/29 14:35:18;;;;;;;;;;;5.60;80.40;;;;;;5015640;28;19924;-77
2023/01/29 14:37:45;;;;;;;;;;;5.80;81.10;;;;;;5016722;28;19959;-78
2023/01/29 14:40:11;;;;;;;;;;;5.90;80.90;;;;;;5011765;28;19920;-78
2023/01/29 14:42:42;;;;;;;;;;;5.80;79.40;;;;;;5007168;28;19914;-78
2023/01/29 14:45:28;;;;;;;;;;;5.80;82.40;;;;;;5017643;28;20671;-77
2023/01/29 14:48:18;;;;;;;;;;;5.80;85.20;;;;;;5012852;28;19958;-78
2023/01/29 14:50:48;;;;;;;;;;;5.70;85.10;;;;;;5021523;28;20021;-78
2023/01/29 14:53:33;;;;;;;;;;;5.40;85.20;;;;;;5012376;28;19909;-78
2023/01/29 14:56:01;;;;;;;;;;;5.20;85.90;;;;;;5023507;28;19992;-77
2023/01/29 14:58:32;;;;;;;;;;;5.00;86.00;;;;;;5015411;28;19987;-78
2023/01/29 15:01:00;;;;;;;;;;;4.90;86.90;;;;;;5019259;28;19921;-77
2023/01/29 15:03:25;;;;;;;;;;;4.70;85.00;;;;;;5009543;28;20452;-77
2023/01/29 15:05:51;;;;;;;;;;;4.60;86.10;;;;;;5008282;28;19916;-77
2023/01/29 15:08:22;;;;;;;;;;;4.60;84.80;;;;;;5011673;28;20329;-78